Google Maps JavaScript API Example
Pilot Flight Report # 69711 Submitted by : AST332 on 2012-07-12
Date: 2012-07-12Aircraft: Cessna 182S Skylane
Flight No.: Not AvailableDistance (Nm): 132.85
Departure: FBSW - ShakaweDestination: FBMN - Maun
 TimeFuelWeightSpeeds  
Out (Taxi)1008Z168 lbs3216 lbs Flight RulesIFR
Off (Takeoff)1009Z 3216 lbs56 ktsFlight Level5500
On (Landing)1111Z 3134 lbs63 ktsVSTD-506 ft/min
In (Ramp)1114Z84 lbs3134 lbs ZFW3051 lbs
Flight1.00  -  1:0278 lbs  Pax0
Block1.10  -  1:0684 lbs  Cargo0
Departure WeatherFBSW 121006Z 18000KT 100SM SKC 16/13 A2991
Destination WeatherFBMN 121114Z 16108KT 100SM FEW053 17/5 A3012
Flight Comments